Time;durP1;ratioP1;P1;durP2;ratioP2;P2;SDS_P1;SDS_P2;PMS_P1;PMS_P2;Temp;Humidity;BMP_temperature;BMP_pressure;BME280_temperature;BME280_humidity;BME280_pressure;Samples;Min_cycle;Max_cycle;Signal;HPM_P1;HPM_P2
2021/04/04 00:01:09;;;;;;;1.25;0.50;;;;;;;26.63;19.71;101057.63;2070196;28;20045;-63
2021/04/04 00:02:28;;;;;;;0.75;0.47;;;;;;;28.39;18.05;101072.63;2077009;28;20029;-63
2021/04/04 00:03:48;;;;;;;1.40;0.57;;;;;;;28.51;18.02;101063.81;2074902;28;20484;-62
2021/04/04 00:05:09;;;;;;;3.92;0.60;;;;;;;29.64;16.97;101059.84;2090749;28;20028;-61
2021/04/04 00:06:28;;;;;;;2.67;0.60;;;;;;;29.59;16.44;101064.72;2082610;28;20075;-61
2021/04/04 00:07:47;;;;;;;2.22;0.57;;;;;;;29.02;17.13;101055.78;2078196;28;20045;-61
2021/04/04 00:09:06;;;;;;;1.08;0.60;;;;;;;27.07;18.95;101060.31;2075631;28;20112;-63
2021/04/04 00:10:25;;;;;;;0.75;0.52;;;;;;;28.37;18.10;101060.84;2084928;28;20029;-61
2021/04/04 00:11:49;;;;;;;2.35;0.63;;;;;;;27.75;18.42;101058.22;2079821;28;20032;-62
2021/04/04 00:13:08;;;;;;;1.00;0.65;;;;;;;27.91;18.14;101055.69;2078228;28;20061;-61
2021/04/04 00:14:27;;;;;;;0.90;0.50;;;;;;;29.79;16.51;101062.75;2086178;28;20032;-64
2021/04/04 00:15:46;;;;;;;1.60;0.57;;;;;;;28.59;17.45;101063.44;2082613;28;20064;-62
2021/04/04 00:17:05;;;;;;;1.42;0.50;;;;;;;28.44;17.80;101051.34;2082561;28;20447;-62
2021/04/04 00:18:24;;;;;;;0.60;0.40;;;;;;;28.35;18.01;101052.66;2078143;28;21059;-62
2021/04/04 00:19:43;;;;;;;0.80;0.60;;;;;;;28.05;18.28;101055.94;2081457;28;20049;-63
2021/04/04 00:21:03;;;;;;;3.17;0.70;;;;;;;29.12;17.19;101040.66;2082206;28;20037;-62
2021/04/04 00:22:22;;;;;;;2.53;0.50;;;;;;;27.57;18.17;101049.00;2073918;28;20112;-61
2021/04/04 00:23:42;;;;;;;2.75;0.52;;;;;;;28.69;17.63;101040.06;2087789;28;20392;-62
2021/04/04 00:25:01;;;;;;;1.17;0.60;;;;;;;26.42;19.36;101041.13;2084212;28;20493;-63
2021/04/04 00:26:20;;;;;;;1.20;0.60;;;;;;;25.37;20.34;101037.84;2082721;28;20045;-61
2021/04/04 00:27:39;;;;;;;3.25;0.70;;;;;;;26.46;19.55;101033.66;2092403;28;20037;-61
2021/04/04 00:28:58;;;;;;;2.53;0.63;;;;;;;26.16;19.66;101044.00;2076463;28;20030;-61
2021/04/04 00:30:19;;;;;;;1.63;0.70;;;;;;;26.49;19.62;101031.69;2073443;28;21239;-62
2021/04/04 00:31:38;;;;;;;1.08;0.68;;;;;;;26.73;19.43;101023.47;2079926;28;20508;-62
2021/04/04 00:32:57;;;;;;;1.77;0.80;;;;;;;27.20;18.93;101026.00;2091952;28;20028;-62
2021/04/04 00:34:16;;;;;;;1.60;0.60;;;;;;;26.93;18.87;101026.25;2082198;28;20033;-61
2021/04/04 00:35:35;;;;;;;1.15;0.60;;;;;;;27.37;18.81;101025.28;2087938;28;20393;-61
2021/04/04 00:36:54;;;;;;;2.15;0.60;;;;;;;26.63;19.49;101024.81;2083402;28;20512;-61
2021/04/04 00:38:14;;;;;;;2.83;0.60;;;;;;;26.10;19.76;101020.53;2094617;28;20025;-61
2021/04/04 00:39:32;;;;;;;3.75;0.65;;;;;;;25.54;20.10;101017.16;2089253;28;20061;-61
2021/04/04 00:40:52;;;;;;;2.05;0.68;;;;;;;25.01;21.31;101022.69;2088791;28;20029;-61
2021/04/04 00:42:11;;;;;;;1.63;0.75;;;;;;;26.11;19.94;101025.06;2092641;28;20036;-63
2021/04/04 00:43:29;;;;;;;3.03;0.77;;;;;;;26.48;19.56;101019.00;2087150;28;20428;-62
2021/04/04 00:44:49;;;;;;;2.38;0.50;;;;;;;25.84;20.33;101026.97;2077659;28;20041;-60
2021/04/04 00:46:08;;;;;;;1.48;0.50;;;;;;;25.46;20.77;101011.09;2083463;28;20025;-60
2021/04/04 00:47:27;;;;;;;1.25;0.60;;;;;;;25.53;20.95;101023.59;2090981;28;20041;-61
2021/04/04 00:48:46;;;;;;;1.33;0.75;;;;;;;25.64;20.68;101025.03;2090835;28;20036;-61
2021/04/04 00:50:06;;;;;;;2.08;0.55;;;;;;;26.04;20.28;101032.59;2087674;28;20041;-61
2021/04/04 00:51:26;;;;;;;0.65;0.60;;;;;;;25.05;20.85;101020.75;2082132;28;20040;-61
2021/04/04 00:52:45;;;;;;;2.17;0.60;;;;;;;25.09;21.15;101006.06;2084021;28;20041;-61
2021/04/04 00:54:04;;;;;;;0.90;0.60;;;;;;;27.05;19.33;101019.31;2082167;28;20037;-61
2021/04/04 00:55:23;;;;;;;1.60;0.75;;;;;;;27.02;19.47;101015.84;2085832;28;20024;-61
2021/04/04 00:56:43;;;;;;;3.10;0.82;;;;;;;24.91;20.77;100999.41;2086059;28;20028;-61
2021/04/04 00:58:03;;;;;;;1.35;0.60;;;;;;;26.23;19.74;101008.19;2075727;28;20045;-60
2021/04/04 00:59:22;;;;;;;1.23;0.68;;;;;;;26.77;19.31;100997.75;2080297;28;20037;-62
2021/04/04 01:00:42;;;;;;;3.35;0.60;;;;;;;27.41;18.95;100998.66;2074817;28;20050;-63
2021/04/04 01:02:01;;;;;;;1.10;0.47;;;;;;;24.54;21.23;100992.50;2084908;28;20032;-61
2021/04/04 01:03:20;;;;;;;1.05;0.63;;;;;;;24.48;21.45;100996.31;2084779;28;20108;-61
2021/04/04 01:04:40;;;;;;;1.25;0.60;;;;;;;24.90;20.91;100984.88;2079815;28;20029;-61
2021/04/04 01:06:03;;;;;;;1.42;0.70;;;;;;;23.91;22.38;100995.38;2088388;28;20119;-61
2021/04/04 01:07:22;;;;;;;1.00;0.40;;;;;;;22.56;23.51;100995.47;2080830;28;20393;-62
2021/04/04 01:08:41;;;;;;;2.45;0.70;;;;;;;23.09;23.05;100990.50;2082650;28;20473;-61
2021/04/04 01:10:05;;;;;;;2.97;0.82;;;;;;;23.46;22.77;100998.50;2077968;28;20037;-62
2021/04/04 01:11:36;;;;;;;1.40;0.80;;;;;;;23.72;22.48;100981.41;2080578;28;20057;-60
2021/04/04 01:13:00;;;;;;;1.38;0.60;;;;;;;24.52;21.56;100978.94;2082853;28;20048;-61
2021/04/04 01:14:32;;;;;;;2.97;0.82;;;;;;;25.29;21.16;100981.69;2080909;28;20037;-61
2021/04/04 01:15:56;;;;;;;0.60;0.60;;;;;;;24.84;21.44;100974.19;2085622;28;20044;-63
2021/04/04 01:17:18;;;;;;;1.40;0.77;;;;;;;25.58;20.52;100978.84;2089050;28;20511;-60
2021/04/04 01:18:38;;;;;;;2.05;0.68;;;;;;;24.62;21.18;100968.59;2077506;28;20493;-61
2021/04/04 01:20:09;;;;;;;1.80;0.80;;;;;;;24.43;21.50;100962.84;2077573;28;20444;-61
2021/04/04 01:21:41;;;;;;;1.70;0.80;;;;;;;23.61;21.84;100978.09;2090411;28;20127;-60
2021/04/04 01:23:21;;;;;;;1.45;0.60;;;;;;;23.57;22.14;100976.41;2082117;28;20501;-60
2021/04/04 01:25:06;;;;;;;1.67;0.80;;;;;;;24.01;21.70;100976.94;2080459;28;20049;-62
2021/04/04 01:26:43;;;;;;;2.80;0.98;;;;;;;22.53;23.21;100962.00;2086393;28;20025;-62
2021/04/04 01:28:09;;;;;;;2.38;0.63;;;;;;;24.32;21.48;100959.59;2085778;28;20033;-63
2021/04/04 01:29:29;;;;;;;1.42;0.68;;;;;;;24.43;21.38;100954.66;2079049;28;20033;-61
2021/04/04 01:30:50;;;;;;;2.35;0.63;;;;;;;23.56;22.05;100965.59;2077052;28;20518;-61
2021/04/04 01:32:10;;;;;;;2.80;0.88;;;;;;;23.73;21.88;100965.97;2074993;28;20497;-61
2021/04/04 01:33:30;;;;;;;0.93;0.63;;;;;;;24.58;21.15;100955.13;2084635;28;20070;-62
2021/04/04 01:34:50;;;;;;;1.52;0.90;;;;;;;23.79;22.03;100962.19;2089041;28;20065;-61
2021/04/04 01:36:11;;;;;;;2.80;0.90;;;;;;;25.48;20.45;100960.06;2077255;28;20037;-62
2021/04/04 01:37:30;;;;;;;1.55;0.68;;;;;;;25.17;20.48;100954.84;2070748;28;20168;-61
2021/04/04 01:38:50;;;;;;;2.17;0.75;;;;;;;23.36;22.13;100958.00;2083057;28;20456;-61
2021/04/04 01:40:14;;;;;;;4.05;0.60;;;;;;;23.72;22.23;100959.63;2085562;28;20413;-64
2021/04/04 01:41:36;;;;;;;1.85;0.50;;;;;;;23.45;21.93;100960.44;2086803;28;20028;-61
2021/04/04 01:42:55;;;;;;;0.85;0.70;;;;;;;23.48;21.92;100963.09;2077689;28;20509;-61
2021/04/04 01:44:19;;;;;;;1.38;0.70;;;;;;;23.93;21.42;100968.09;2078018;28;20510;-62
2021/04/04 01:45:41;;;;;;;2.10;0.65;;;;;;;24.53;20.93;100953.44;2078371;28;20045;-61
2021/04/04 01:47:01;;;;;;;1.73;0.80;;;;;;;24.78;20.52;100949.88;2082076;28;20045;-63
2021/04/04 01:48:20;;;;;;;2.15;0.77;;;;;;;26.03;19.58;100953.44;2084028;28;20108;-61
2021/04/04 01:49:43;;;;;;;2.30;0.73;;;;;;;24.36;21.13;100957.63;2080197;28;20424;-62
2021/04/04 01:51:02;;;;;;;0.55;0.50;;;;;;;23.94;21.35;100942.63;2068331;28;20037;-61
2021/04/04 01:52:22;;;;;;;0.95;0.57;;;;;;;24.72;20.68;100950.06;2078158;28;20089;-61
2021/04/04 01:53:42;;;;;;;0.98;0.60;;;;;;;25.27;20.53;100941.78;2072409;28;20066;-62
2021/04/04 01:55:02;;;;;;;2.30;0.85;;;;;;;24.17;20.89;100944.63;2082530;28;20041;-61
2021/04/04 01:56:21;;;;;;;2.97;0.60;;;;;;;23.78;21.39;100957.66;2079387;28;20102;-61
2021/04/04 01:57:41;;;;;;;1.73;1.20;;;;;;;25.51;20.11;100942.66;2081009;28;20041;-61
2021/04/04 01:59:01;;;;;;;1.15;0.50;;;;;;;24.99;20.34;100947.31;2083184;28;20029;-63
2021/04/04 02:00:23;;;;;;;0.75;0.70;;;;;;;25.73;19.34;100942.72;2088790;28;20116;-60
2021/04/04 02:01:46;;;;;;;1.15;0.80;;;;;;;25.98;19.21;100939.06;2075209;28;20033;-62
2021/04/04 02:03:07;;;;;;;3.17;1.20;;;;;;;26.73;18.75;100935.94;2076443;28;20033;-62
2021/04/04 02:04:26;;;;;;;0.73;0.52;;;;;;;26.30;18.81;100941.34;2081551;28;20515;-61
2021/04/04 02:05:45;;;;;;;2.10;0.60;;;;;;;25.84;19.33;100924.09;2078666;28;20119;-62
2021/04/04 02:07:06;;;;;;;4.15;0.55;;;;;;;25.22;19.55;100936.47;2079244;28;20982;-61
2021/04/04 02:08:26;;;;;;;1.63;0.80;;;;;;;24.45;20.52;100943.72;2082807;28;20064;-62
2021/04/04 02:09:46;;;;;;;1.98;1.48;;;;;;;24.40;20.46;100935.69;2084608;28;20061;-62
2021/04/04 02:11:05;;;;;;;1.05;0.65;;;;;;;25.32;20.14;100937.91;2090410;28;20048;-60
2021/04/04 02:12:24;;;;;;;1.90;0.80;;;;;;;23.86;20.98;100937.44;2082621;28;20088;-61
2021/04/04 02:13:43;;;;;;;2.30;0.45;;;;;;;23.94;20.99;100929.91;2086497;28;20111;-61
2021/04/04 02:15:13;;;;;;;1.88;0.60;;;;;;;26.45;18.79;100925.25;2087362;28;20041;-61
2021/04/04 02:16:35;;;;;;;1.33;1.00;;;;;;;25.22;19.88;100931.00;2079175;28;20029;-60
2021/04/04 02:17:54;;;;;;;3.42;0.73;;;;;;;26.34;19.11;100929.34;2068615;28;20513;-60
2021/04/04 02:19:15;;;;;;;2.83;0.82;;;;;;;24.68;20.06;100923.88;2074755;28;20053;-61
2021/04/04 02:20:35;;;;;;;1.15;0.70;;;;;;;24.31;20.65;100925.09;2069563;28;20042;-62
2021/04/04 02:21:57;;;;;;;2.63;0.80;;;;;;;25.21;20.00;100942.00;2080396;28;20480;-62
2021/04/04 02:23:17;;;;;;;4.30;0.60;;;;;;;25.65;19.41;100934.84;2086128;28;20029;-60
2021/04/04 02:24:36;;;;;;;2.17;0.68;;;;;;;24.62;20.28;100924.97;2077248;28;20045;-61
2021/04/04 02:25:57;;;;;;;1.90;0.90;;;;;;;23.68;20.89;100933.44;2085191;28;20029;-61
2021/04/04 02:27:15;;;;;;;2.50;0.70;;;;;;;23.12;21.77;100920.59;2089774;28;20029;-62
2021/04/04 02:28:34;;;;;;;2.50;0.80;;;;;;;24.61;19.83;100911.41;2077172;28;20041;-61
2021/04/04 02:29:54;;;;;;;2.40;0.70;;;;;;;24.77;19.92;100919.91;2078559;28;20034;-62
2021/04/04 02:31:13;;;;;;;0.95;0.60;;;;;;;25.31;19.70;100913.44;2079772;28;20087;-61
2021/04/04 02:32:36;;;;;;;1.83;0.60;;;;;;;24.68;20.28;100912.97;2086611;28;20459;-61
2021/04/04 02:33:57;;;;;;;1.60;0.85;;;;;;;23.87;21.02;100913.84;2083543;28;20032;-60
2021/04/04 02:35:24;;;;;;;1.75;0.70;;;;;;;23.53;20.91;100923.00;2080186;28;20041;-61
2021/04/04 02:36:43;;;;;;;0.85;0.75;;;;;;;23.81;20.90;100924.91;2074492;28;20401;-63
2021/04/04 02:38:07;;;;;;;3.90;0.68;;;;;;;23.13;21.42;100918.75;2085425;28;20033;-63
2021/04/04 02:39:29;;;;;;;1.60;0.63;;;;;;;23.08;21.67;100917.97;2083674;28;20068;-61
2021/04/04 02:40:48;;;;;;;1.13;0.90;;;;;;;25.55;19.20;100914.28;2080315;28;20037;-61
2021/04/04 02:42:08;;;;;;;2.00;0.50;;;;;;;23.49;21.09;100914.06;2077971;28;20041;-61
2021/04/04 02:43:30;;;;;;;1.00;0.52;;;;;;;23.32;21.15;100917.25;2077324;28;20034;-61
2021/04/04 02:44:52;;;;;;;1.50;0.70;;;;;;;22.87;21.55;100914.88;2089479;28;20036;-61
2021/04/04 02:46:14;;;;;;;3.10;0.70;;;;;;;23.42;20.91;100896.13;2092064;28;20037;-61
2021/04/04 02:47:36;;;;;;;0.80;0.60;;;;;;;24.06;20.76;100895.94;2072183;28;20494;-61
2021/04/04 02:48:59;;;;;;;2.40;0.93;;;;;;;26.22;19.09;100901.63;2068984;28;20053;-62
2021/04/04 02:50:19;;;;;;;2.13;0.60;;;;;;;26.34;18.44;100895.66;2080678;28;20029;-61
2021/04/04 02:51:40;;;;;;;5.10;0.80;;;;;;;25.62;19.20;100902.19;2092767;28;20051;-61
2021/04/04 02:53:00;;;;;;;3.85;0.90;;;;;;;24.64;19.77;100903.09;2087231;28;20037;-61
2021/04/04 02:54:23;;;;;;;3.65;0.98;;;;;;;23.09;21.39;100903.47;2082813;28;20036;-60
2021/04/04 02:55:43;;;;;;;3.63;0.60;;;;;;;23.24;21.31;100903.00;2087987;28;20456;-61
2021/04/04 02:57:02;;;;;;;1.60;0.52;;;;;;;22.49;21.84;100905.97;2083255;28;20045;-62
2021/04/04 02:58:23;;;;;;;2.05;0.82;;;;;;;22.63;21.82;100899.25;2083757;28;20037;-61
2021/04/04 02:59:44;;;;;;;1.92;0.70;;;;;;;22.25;22.43;100893.88;2083398;28;20026;-61
2021/04/04 03:01:04;;;;;;;2.50;0.90;;;;;;;24.61;20.53;100895.06;2082963;28;20033;-61
2021/04/04 03:02:23;;;;;;;1.42;0.60;;;;;;;23.17;21.11;100916.84;2074166;28;20478;-62
2021/04/04 03:03:44;;;;;;;0.90;0.70;;;;;;;23.84;20.63;100897.59;2087124;28;20044;-62
2021/04/04 03:05:07;;;;;;;1.60;0.60;;;;;;;23.31;21.34;100901.91;2088496;28;20500;-63
2021/04/04 03:06:27;;;;;;;2.65;0.70;;;;;;;23.57;21.04;100897.47;2076332;28;20046;-63
2021/04/04 03:07:47;;;;;;;2.25;0.70;;;;;;;24.50;20.09;100888.16;2089058;28;20052;-62
2021/04/04 03:09:08;;;;;;;1.42;0.70;;;;;;;22.96;21.41;100900.16;2084678;28;20029;-63
2021/04/04 03:10:28;;;;;;;1.45;0.80;;;;;;;23.66;20.91;100883.59;2095047;28;20528;-62
2021/04/04 03:11:47;;;;;;;1.20;0.70;;;;;;;25.45;19.45;100881.03;2078961;28;20049;-62
2021/04/04 03:13:07;;;;;;;2.15;0.77;;;;;;;23.93;20.98;100886.41;2076180;28;20045;-61
2021/04/04 03:14:27;;;;;;;1.08;0.65;;;;;;;24.34;20.22;100871.38;2080364;28;20038;-62
2021/04/04 03:15:46;;;;;;;3.05;0.70;;;;;;;23.12;21.35;100882.50;2084663;28;20037;-64
2021/04/04 03:17:07;;;;;;;1.17;0.73;;;;;;;23.22;21.24;100883.09;2075548;28;20029;-61
2021/04/04 03:18:26;;;;;;;3.97;0.93;;;;;;;23.31;21.50;100871.09;2087845;28;20032;-61
2021/04/04 03:19:46;;;;;;;3.90;0.80;;;;;;;24.38;20.21;100869.47;2081686;28;20444;-62
2021/04/04 03:21:06;;;;;;;2.55;0.65;;;;;;;23.47;21.14;100882.38;2080544;28;20030;-63
2021/04/04 03:22:26;;;;;;;1.48;0.60;;;;;;;24.77;19.76;100874.47;2086914;28;20115;-62
2021/04/04 03:23:46;;;;;;;1.52;0.80;;;;;;;24.90;19.84;100864.00;2081100;28;20029;-65
2021/04/04 03:25:07;;;;;;;2.67;0.75;;;;;;;25.31;19.39;100876.09;2076311;28;20049;-62
2021/04/04 03:26:26;;;;;;;2.58;0.70;;;;;;;25.18;19.18;100877.47;2083760;28;20412;-63
2021/04/04 03:27:47;;;;;;;1.80;0.63;;;;;;;24.53;20.22;100871.66;2075144;28;20037;-62
2021/04/04 03:29:07;;;;;;;3.10;0.60;;;;;;;24.88;19.61;100866.78;2076396;28;20033;-62
2021/04/04 03:30:42;;;;;;;0.60;0.60;;;;;;;24.56;19.75;100864.31;2081598;28;20025;-62
2021/04/04 03:32:02;;;;;;;2.97;0.77;;;;;;;25.17;19.65;100864.78;2083034;28;21002;-62
2021/04/04 03:33:22;;;;;;;0.82;0.80;;;;;;;25.42;19.13;100866.59;2085402;28;20036;-63
2021/04/04 03:34:41;;;;;;;1.33;0.80;;;;;;;24.81;19.84;100854.31;2086547;28;20040;-62
2021/04/04 03:36:01;;;;;;;2.65;0.80;;;;;;;24.76;19.97;100850.84;2083483;28;20037;-62
2021/04/04 03:37:21;;;;;;;1.40;0.80;;;;;;;26.23;18.78;100854.19;2076011;28;20030;-62
2021/04/04 03:38:40;;;;;;;2.05;0.80;;;;;;;25.17;19.05;100862.06;2083767;28;20401;-62
2021/04/04 03:39:59;;;;;;;1.58;0.85;;;;;;;26.45;18.26;100854.16;2089075;28;20041;-64
2021/04/04 03:41:19;;;;;;;2.47;0.70;;;;;;;25.37;18.98;100855.88;2086684;28;20041;-63
2021/04/04 03:42:38;;;;;;;1.80;1.13;;;;;;;24.54;20.09;100858.91;2077773;28;20037;-62
2021/04/04 03:43:58;;;;;;;1.13;1.02;;;;;;;23.98;20.29;100845.41;2079078;28;20037;-62
2021/04/04 03:45:17;;;;;;;1.95;0.68;;;;;;;25.40;19.07;100847.53;2082069;28;20025;-62
2021/04/04 03:46:37;;;;;;;4.25;0.70;;;;;;;24.77;19.30;100849.00;2084954;28;20033;-62
2021/04/04 03:47:57;;;;;;;2.92;0.77;;;;;;;23.59;20.79;100838.44;2089951;28;20032;-62
2021/04/04 03:49:18;;;;;;;1.60;0.70;;;;;;;24.21;20.36;100830.97;2083467;28;20033;-62
2021/04/04 03:50:38;;;;;;;2.03;1.08;;;;;;;23.69;20.61;100842.66;2077058;28;20682;-62
2021/04/04 03:51:59;;;;;;;5.45;1.50;;;;;;;24.61;19.99;100844.13;2088301;28;20472;-63
2021/04/04 03:53:21;;;;;;;2.75;0.65;;;;;;;25.28;19.60;100838.00;2089447;28;20746;-63
2021/04/04 03:54:40;;;;;;;3.03;1.10;;;;;;;24.51;19.76;100842.69;2079277;28;20116;-62
2021/04/04 03:56:02;;;;;;;1.15;0.60;;;;;;;24.98;19.39;100848.22;2077108;28;20028;-62
2021/04/04 03:57:22;;;;;;;2.60;0.82;;;;;;;24.73;19.89;100834.63;2070778;28;20505;-62
2021/04/04 03:58:42;;;;;;;2.22;0.85;;;;;;;23.41;21.16;100828.13;2075714;28;20494;-63
2021/04/04 04:00:03;;;;;;;1.30;0.73;;;;;;;24.29;20.44;100835.22;2082359;28;20029;-62
2021/04/04 04:01:25;;;;;;;1.70;0.75;;;;;;;23.28;21.16;100824.91;2085145;28;20032;-62
2021/04/04 04:02:45;;;;;;;1.30;0.68;;;;;;;24.59;20.29;100832.41;2082797;28;20041;-62
2021/04/04 04:04:05;;;;;;;3.30;0.77;;;;;;;24.13;20.54;100828.53;2079690;28;20033;-62
2021/04/04 04:05:24;;;;;;;1.85;0.68;;;;;;;24.26;20.19;100832.63;2081906;28;20092;-63
2021/04/04 04:06:45;;;;;;;1.60;0.63;;;;;;;25.23;19.79;100828.22;2082276;28;20033;-62
2021/04/04 04:08:05;;;;;;;4.18;0.73;;;;;;;24.23;20.72;100820.94;2072742;28;20463;-61
2021/04/04 04:09:24;;;;;;;1.77;0.60;;;;;;;25.31;19.73;100821.50;2076813;28;20048;-61
2021/04/04 04:10:44;;;;;;;1.85;0.75;;;;;;;24.61;20.08;100814.16;2072024;28;20026;-64
2021/04/04 04:12:03;;;;;;;3.17;0.70;;;;;;;26.20;19.13;100822.44;2068461;28;20108;-62
2021/04/04 04:13:23;;;;;;;2.17;0.90;;;;;;;25.33;19.52;100827.81;2077061;28;20528;-63
2021/04/04 04:14:43;;;;;;;4.18;0.90;;;;;;;24.55;20.33;100824.41;2088541;28;20037;-62
2021/04/04 04:16:02;;;;;;;2.40;0.80;;;;;;;24.58;20.78;100837.91;2081620;28;20488;-64
2021/04/04 04:17:23;;;;;;;3.55;0.65;;;;;;;24.38;20.35;100834.03;2086235;28;20033;-62
2021/04/04 04:18:43;;;;;;;1.23;0.77;;;;;;;23.53;21.33;100825.03;2081118;28;20208;-62
2021/04/04 04:20:03;;;;;;;4.35;0.85;;;;;;;26.29;18.92;100823.88;2069374;28;20034;-62
2021/04/04 04:21:22;;;;;;;2.13;0.80;;;;;;;24.97;19.85;100818.28;2071745;28;20046;-63
2021/04/04 04:22:42;;;;;;;1.77;0.55;;;;;;;25.31;19.77;100818.78;2085657;28;20037;-62
2021/04/04 04:24:06;;;;;;;1.88;0.85;;;;;;;24.70;20.18;100812.91;2088363;28;20492;-61
2021/04/04 04:25:27;;;;;;;3.13;1.15;;;;;;;25.69;19.42;100810.88;2071496;28;20042;-62
2021/04/04 04:26:47;;;;;;;1.70;0.68;;;;;;;24.47;20.26;100803.69;2086436;28;20032;-62
2021/04/04 04:28:08;;;;;;;2.78;0.90;;;;;;;23.60;21.45;100806.69;2081160;28;20519;-62
2021/04/04 04:29:29;;;;;;;1.45;1.05;;;;;;;22.91;22.03;100818.72;2085156;28;20517;-63
2021/04/04 04:30:48;;;;;;;1.50;0.70;;;;;;;25.16;20.17;100800.22;2081514;28;20412;-63
2021/04/04 04:32:08;;;;;;;1.98;0.73;;;;;;;26.36;19.19;100800.78;2092412;28;20036;-62
2021/04/04 04:33:28;;;;;;;3.22;0.88;;;;;;;24.97;20.19;100800.06;2092495;28;20032;-62
2021/04/04 04:34:50;;;;;;;1.42;0.88;;;;;;;24.28;20.80;100794.44;2078207;28;20049;-61
2021/04/04 04:36:10;;;;;;;2.60;0.60;;;;;;;24.66;20.49;100800.34;2080194;28;20033;-62
2021/04/04 04:37:31;;;;;;;3.92;0.63;;;;;;;23.48;21.70;100780.75;2085455;28;20033;-61
2021/04/04 04:38:51;;;;;;;1.50;0.75;;;;;;;25.26;20.67;100785.31;2082807;28;20041;-61
2021/04/04 04:40:11;;;;;;;1.75;0.80;;;;;;;26.25;19.25;100778.50;2080985;28;20045;-61
2021/04/04 04:41:33;;;;;;;1.15;0.80;;;;;;;29.09;16.83;100775.31;2080999;28;20463;-61
2021/04/04 04:42:53;;;;;;;3.17;0.90;;;;;;;25.36;19.54;100784.97;2085500;28;20068;-63
2021/04/04 04:44:20;;;;;;;1.38;0.70;;;;;;;27.34;18.48;100776.22;2079389;28;20033;-62
2021/04/04 04:45:40;;;;;;;2.30;0.95;;;;;;;29.05;16.88;100770.09;2068446;28;20417;-62
2021/04/04 04:46:59;;;;;;;3.08;1.10;;;;;;;25.87;19.32;100761.91;2074444;28;20433;-64
2021/04/04 04:48:18;;;;;;;4.15;1.08;;;;;;;28.21;17.34;100761.81;2078960;28;20033;-64
2021/04/04 04:49:38;;;;;;;3.08;1.05;;;;;;;27.05;18.65;100758.44;2083334;28;20036;-62
2021/04/04 04:50:58;;;;;;;4.22;0.90;;;;;;;29.00;17.08;100758.50;2083226;28;20033;-62
2021/04/04 04:52:17;;;;;;;2.05;0.70;;;;;;;26.35;19.14;100752.53;2079951;28;20120;-62
2021/04/04 04:53:38;;;;;;;2.00;1.25;;;;;;;25.77;19.15;100741.41;2072043;28;20037;-61
2021/04/04 04:54:57;;;;;;;2.08;0.70;;;;;;;25.26;19.91;100747.09;2082800;28;20508;-62
2021/04/04 04:56:17;;;;;;;1.50;0.70;;;;;;;23.60;21.40;100741.38;2085482;28;20036;-62
2021/04/04 04:57:36;;;;;;;2.05;0.77;;;;;;;23.61;21.93;100744.00;2080550;28;20037;-62
2021/04/04 04:58:55;;;;;;;1.25;0.70;;;;;;;25.60;19.97;100723.00;2079112;28;20493;-66
2021/04/04 05:00:15;;;;;;;4.00;0.88;;;;;;;25.18;19.92;100727.38;2084568;28;20068;-66
2021/04/04 05:01:41;;;;;;;1.02;0.70;;;;;;;26.60;18.60;100730.44;2078524;28;20073;-65
2021/04/04 05:03:01;;;;;;;3.13;0.82;;;;;;;27.17;18.31;100730.50;2080306;28;20037;-65
2021/04/04 05:04:20;;;;;;;1.85;0.80;;;;;;;26.24;19.41;100730.28;2080051;28;20029;-65
2021/04/04 05:05:39;;;;;;;2.97;0.80;;;;;;;27.55;18.04;100725.00;2080499;28;20041;-65
2021/04/04 05:06:58;;;;;;;1.35;0.90;;;;;;;27.76;17.91;100719.38;2092548;28;20063;-65
2021/04/04 05:08:19;;;;;;;3.67;0.82;;;;;;;27.19;18.15;100725.81;2086887;28;20068;-66
2021/04/04 05:09:40;;;;;;;3.22;0.70;;;;;;;26.88;18.84;100721.84;2085618;28;20032;-65
2021/04/04 05:11:04;;;;;;;2.03;0.70;;;;;;;25.59;19.44;100732.13;2081928;28;20033;-65
2021/04/04 05:12:25;;;;;;;0.88;0.70;;;;;;;26.98;18.24;100718.69;2087039;28;20156;-65
2021/04/04 05:13:45;;;;;;;1.65;0.60;;;;;;;25.17;20.04;100720.19;2083370;28;20517;-65
2021/04/04 05:15:05;;;;;;;1.40;0.80;;;;;;;25.28;20.00;100717.91;2081982;28;20041;-65
2021/04/04 05:16:24;;;;;;;3.38;0.80;;;;;;;25.78;19.95;100726.78;2071120;28;20029;-65
2021/04/04 05:17:43;;;;;;;4.32;0.77;;;;;;;23.12;22.48;100721.13;2074465;28;20716;-65
2021/04/04 05:19:06;;;;;;;2.65;0.80;;;;;;;24.49;21.43;100720.06;2079861;28;20081;-65
2021/04/04 05:20:25;;;;;;;9.07;1.10;;;;;;;23.96;21.80;100706.56;2095839;28;20036;-65
2021/04/04 05:21:44;;;;;;;5.82;0.82;;;;;;;24.37;21.31;100709.59;2083975;28;20500;-65
2021/04/04 05:23:04;;;;;;;1.75;0.90;;;;;;;24.31;21.18;100685.31;2088198;28;20404;-65
2021/04/04 05:24:24;;;;;;;1.52;0.77;;;;;;;25.24;20.25;100704.47;2092420;28;20119;-65
2021/04/04 05:25:44;;;;;;;3.80;0.80;;;;;;;24.67;20.99;100698.53;2082737;28;20118;-65
2021/04/04 05:27:03;;;;;;;5.32;1.00;;;;;;;26.63;19.15;100689.28;2078358;28;20496;-65
2021/04/04 05:28:23;;;;;;;1.55;0.80;;;;;;;24.48;20.83;100695.56;2084740;28;20037;-65
2021/04/04 05:29:42;;;;;;;4.88;1.00;;;;;;;24.52;20.83;100702.72;2083663;28;20947;-66
2021/04/04 05:31:02;;;;;;;4.60;0.88;;;;;;;24.30;21.25;100700.78;2083224;28;20033;-65
2021/04/04 05:32:21;;;;;;;1.48;0.88;;;;;;;24.86;21.13;100680.47;2085511;28;20060;-65
2021/04/04 05:33:40;;;;;;;2.45;1.05;;;;;;;27.74;18.31;100682.00;2087782;28;20020;-64
2021/04/04 05:34:59;;;;;;;4.40;0.80;;;;;;;27.89;18.14;100676.72;2074468;28;20454;-65
2021/04/04 05:36:18;;;;;;;4.13;0.65;;;;;;;24.78;20.84;100677.19;2079168;28;20060;-65
2021/04/04 05:37:41;;;;;;;1.08;0.60;;;;;;;24.37;20.90;100670.56;2091223;28;20495;-64
2021/04/04 05:39:00;;;;;;;3.47;0.82;;;;;;;24.62;20.88;100678.72;2085892;28;20033;-65
2021/04/04 05:40:24;;;;;;;1.52;1.00;;;;;;;24.47;21.27;100667.44;2079041;28;20029;-64
2021/04/04 05:41:48;;;;;;;4.20;1.00;;;;;;;25.37;20.14;100677.53;2070576;28;20038;-63
2021/04/04 05:43:11;;;;;;;;;;;;;;;26.68;19.20;100670.81;2079988;28;20100;-65
2021/04/04 05:44:38;;;;;;;4.57;0.77;;;;;;;25.36;19.90;100670.31;2072017;28;19924;-64
2021/04/04 05:46:06;;;;;;;2.70;0.80;;;;;;;28.23;17.89;100661.19;2091818;28;20162;-66
2021/04/04 05:47:35;;;;;;;3.60;0.85;;;;;;;27.76;18.11;100656.34;2091579;28;20032;-64
2021/04/04 05:49:01;;;;;;;1.52;0.63;;;;;;;28.10;17.79;100648.13;2081664;28;20040;-64
2021/04/04 05:51:16;;;;;;;5.13;0.95;;;;;;;26.37;19.21;100635.78;2081315;28;20045;-65
2021/04/04 05:52:40;;;;;;;2.80;0.80;;;;;;;27.04;18.58;100634.44;2046010;28;20035;-64
2021/04/04 05:54:02;;;;;;;5.25;0.82;;;;;;;27.05;18.38;100635.31;2033875;29;20479;-65
2021/04/04 05:55:23;;;;;;;2.78;0.77;;;;;;;26.99;18.30;100621.94;2041258;28;20047;-65
2021/04/04 05:56:49;;;;;;;1.98;0.90;;;;;;;26.73;19.04;100624.13;2034625;29;20500;-65
2021/04/04 05:58:11;;;;;;;1.90;0.70;;;;;;;26.16;19.19;100639.53;2083550;28;20068;-65
2021/04/04 05:59:35;;;;;;;2.40;0.95;;;;;;;27.81;18.20;100629.63;2075395;28;20037;-65
2021/04/04 06:00:57;;;;;;;4.15;0.80;;;;;;;27.80;17.85;100620.53;2087405;28;20033;-64
2021/04/04 06:02:44;;;;;;;2.65;0.85;;;;;;;27.33;18.42;100624.75;2081150;28;20037;-63
2021/04/04 06:04:32;;;;;;;2.25;1.23;;;;;;;24.65;20.65;100629.53;2090879;28;20445;-64
2021/04/04 06:06:16;;;;;;;1.20;0.50;;;;;;;24.57;20.73;100628.97;2090484;28;20029;-63
2021/04/04 06:08:11;;;;;;;2.42;0.65;;;;;;;25.31;20.39;100630.47;2081559;28;20037;-63
2021/04/04 06:09:33;;;;;;;1.20;0.52;;;;;;;24.82;21.06;100613.38;2086761;28;20410;-64
2021/04/04 06:11:04;;;;;;;4.03;0.73;;;;;;;25.40;20.61;100618.25;2089937;28;20464;-64
2021/04/04 06:12:50;;;;;;;11.15;2.25;;;;;;;24.62;20.82;100608.72;2092043;28;20273;-63
2021/04/04 06:14:37;;;;;;;3.45;0.73;;;;;;;25.40;20.13;100614.66;2078389;28;20045;-64
2021/04/04 06:16:17;;;;;;;1.75;0.80;;;;;;;23.28;22.26;100593.69;2084420;28;20036;-65
2021/04/04 06:17:44;;;;;;;2.67;1.33;;;;;;;23.06;22.65;100593.50;2089802;28;20507;-64
2021/04/04 06:19:31;;;;;;;2.40;1.10;;;;;;;22.88;22.94;100585.00;2083297;28;20033;-65
2021/04/04 06:21:19;;;;;;;2.92;1.23;;;;;;;23.56;21.80;100590.91;2092465;28;20488;-64